Airfield :
LOGIN :

Register | Disclaimer

   EN    FR    IT 

 










Legend :    VFR   Marginal VFR   IFR   Intensive IFR   Very Intensive IFR
Visi :
Ceiling :
>= 8 km
>= 3000ft
5 to 8 km
1000 to 3000 ft
1500m to 5 km
500 to 1000 ft
800 to 1500m
200 to 500 ft
< 800m
< 200 ft
Symbols :   Thunderstorms  Fog  Heavy snow  Heavy precipitations  Wind > 20 kt
SIGMETs :     Misc.  Thunderstorms  Icing  Turbulence  Mountain Waves  Volcanic Ashes







- Airport Elevation : 13 ft
- IATA code : GOA


LIMJ - Genoa Cristoforo Colombo

CURRENT METAR :
  • 221350Z 01010KT 330V050 9999 FEW040TCU 30/18 Q1018

EXPIRED METARs :
  • 221320Z 36007KT 300V050 9999 FEW040TCU SCT080 30/18 Q1019
  • 221250Z 02010G22KT 330V070 9999 FEW040TCU SCT080 29/18 Q1019
  • 221220Z 01008KT 310V060 9999 SCT065 30/19 Q1019
  • 221150Z 34010KT 310V020 9999 SCT065 28/18 Q1019
  • 221120Z 36012KT 310V050 9999 FEW050 28/18 Q1019

TAF TAF LIMJ
Valid from the 22 at 12:00 until the 23 at 12:00 UTC


221100Z 2212/2312 01012KT 9999 SCT050
PROB30
TEMPO 2212/2215 TSRA
No reported NOTAMs for that airfield.



MET'MAP, your aeronautical weather chart ! - Copyright ORBIFLY December 2007 - Disclaimer

ORBIFLY MET'MAP TEAM :

Programming & Development : Alexandra Zaïnal
Concept & Development : Baudouin d'Aumeries
Co-Development & Prog : Marc-Olivier Méhu
Technical & hardware support : Manuel Goepfert

Contact : metmap@orbifly.com




SOURCES & CREDITS :

   NOAA